sensor_id;sensor_type;location;lat;lon;timestamp;pressure;altitude;pressure_sealevel;temperature;humidity
38852;BME280;24605;50.092;9.182;2022-07-18T00:00:09;98723.31;;;20.38;29.11
38852;BME280;24605;50.092;9.182;2022-07-18T00:02:36;98702.13;;;20.17;29.54
38852;BME280;24605;50.092;9.182;2022-07-18T00:05:04;98718.03;;;20.31;29.37
38852;BME280;24605;50.092;9.182;2022-07-18T00:07:30;98726.34;;;20.09;29.92
38852;BME280;24605;50.092;9.182;2022-07-18T00:09:57;98716.13;;;19.99;30.02
38852;BME280;24605;50.092;9.182;2022-07-18T00:12:25;98713.44;;;20.06;29.78
38852;BME280;24605;50.092;9.182;2022-07-18T00:14:52;98719.78;;;20.05;30.15
38852;BME280;24605;50.092;9.182;2022-07-18T00:17:18;98711.00;;;20.04;29.93
38852;BME280;24605;50.092;9.182;2022-07-18T00:19:45;98715.94;;;20.01;30.13
38852;BME280;24605;50.092;9.182;2022-07-18T00:22:11;98716.97;;;20.00;30.12
38852;BME280;24605;50.092;9.182;2022-07-18T00:24:38;98719.78;;;20.05;30.08
38852;BME280;24605;50.092;9.182;2022-07-18T00:27:04;98702.19;;;20.04;29.85
38852;BME280;24605;50.092;9.182;2022-07-18T00:29:34;98707.28;;;20.06;29.92
38852;BME280;24605;50.092;9.182;2022-07-18T00:32:02;98718.16;;;20.04;30.08
38852;BME280;24605;50.092;9.182;2022-07-18T00:34:28;98705.09;;;19.96;30.03
38852;BME280;24605;50.092;9.182;2022-07-18T00:36:55;98702.66;;;19.87;30.07
38852;BME280;24605;50.092;9.182;2022-07-18T00:39:22;98685.88;;;19.80;30.35
38852;BME280;24605;50.092;9.182;2022-07-18T00:41:49;98679.78;;;19.66;30.56
38852;BME280;24605;50.092;9.182;2022-07-18T00:44:16;98704.13;;;19.70;30.96
38852;BME280;24605;50.092;9.182;2022-07-18T00:46:44;98718.03;;;19.79;30.61
38852;BME280;24605;50.092;9.182;2022-07-18T00:49:11;98677.97;;;19.53;30.81
38852;BME280;24605;50.092;9.182;2022-07-18T00:51:38;98708.03;;;19.67;30.85
38852;BME280;24605;50.092;9.182;2022-07-18T00:54:04;98683.91;;;19.55;30.70
38852;BME280;24605;50.092;9.182;2022-07-18T00:56:31;98709.84;;;19.67;30.83
38852;BME280;24605;50.092;9.182;2022-07-18T00:58:58;98701.47;;;19.63;30.68
38852;BME280;24605;50.092;9.182;2022-07-18T01:01:24;98707.63;;;19.64;30.77
38852;BME280;24605;50.092;9.182;2022-07-18T01:04:13;98697.84;;;19.51;30.89
38852;BME280;24605;50.092;9.182;2022-07-18T01:06:40;98708.25;;;19.52;31.06
38852;BME280;24605;50.092;9.182;2022-07-18T01:09:07;98713.41;;;19.47;30.86
38852;BME280;24605;50.092;9.182;2022-07-18T01:11:34;98694.97;;;19.52;31.33
38852;BME280;24605;50.092;9.182;2022-07-18T01:14:02;98700.28;;;19.52;30.89
38852;BME280;24605;50.092;9.182;2022-07-18T01:16:28;98713.78;;;19.51;31.19
38852;BME280;24605;50.092;9.182;2022-07-18T01:18:55;98708.88;;;19.41;31.26
38852;BME280;24605;50.092;9.182;2022-07-18T01:21:23;98680.31;;;19.16;31.83
38852;BME280;24605;50.092;9.182;2022-07-18T01:23:50;98713.44;;;19.14;32.06
38852;BME280;24605;50.092;9.182;2022-07-18T01:26:17;98684.78;;;18.82;32.55
38852;BME280;24605;50.092;9.182;2022-07-18T01:28:44;98707.06;;;18.81;32.82
38852;BME280;24605;50.092;9.182;2022-07-18T01:31:11;98683.13;;;18.41;33.77
38852;BME280;24605;50.092;9.182;2022-07-18T01:33:39;98695.50;;;18.20;34.33
38852;BME280;24605;50.092;9.182;2022-07-18T01:36:06;98710.25;;;18.29;34.71
38852;BME280;24605;50.092;9.182;2022-07-18T01:38:35;98709.19;;;18.24;34.51
38852;BME280;24605;50.092;9.182;2022-07-18T01:41:02;98668.22;;;17.84;34.60
38852;BME280;24605;50.092;9.182;2022-07-18T01:43:29;98722.03;;;18.13;34.80
38852;BME280;24605;50.092;9.182;2022-07-18T01:45:56;98718.50;;;17.99;35.02
38852;BME280;24605;50.092;9.182;2022-07-18T01:48:24;98725.78;;;17.91;35.35
38852;BME280;24605;50.092;9.182;2022-07-18T01:50:51;98714.78;;;17.94;35.18
38852;BME280;24605;50.092;9.182;2022-07-18T01:53:18;98714.72;;;17.80;34.93
38852;BME280;24605;50.092;9.182;2022-07-18T01:55:46;98712.31;;;17.92;34.90
38852;BME280;24605;50.092;9.182;2022-07-18T01:58:13;98711.56;;;17.98;34.53
38852;BME280;24605;50.092;9.182;2022-07-18T02:00:40;98715.59;;;17.94;34.59
38852;BME280;24605;50.092;9.182;2022-07-18T02:03:06;98712.59;;;18.04;34.67
38852;BME280;24605;50.092;9.182;2022-07-18T02:05:33;98700.06;;;17.91;34.90
38852;BME280;24605;50.092;9.182;2022-07-18T02:08:00;98702.69;;;17.78;35.26
38852;BME280;24605;50.092;9.182;2022-07-18T02:10:26;98659.66;;;17.41;35.24
38852;BME280;24605;50.092;9.182;2022-07-18T02:12:54;98709.38;;;17.67;35.50
38852;BME280;24605;50.092;9.182;2022-07-18T02:15:21;98700.25;;;17.48;36.22
38852;BME280;24605;50.092;9.182;2022-07-18T02:17:48;98660.03;;;17.37;35.84
38852;BME280;24605;50.092;9.182;2022-07-18T02:20:15;98705.03;;;17.59;36.10
38852;BME280;24605;50.092;9.182;2022-07-18T02:22:42;98712.34;;;17.57;36.15
38852;BME280;24605;50.092;9.182;2022-07-18T02:25:10;98694.19;;;17.54;36.08
38852;BME280;24605;50.092;9.182;2022-07-18T02:27:37;98668.69;;;17.18;36.28
38852;BME280;24605;50.092;9.182;2022-07-18T02:30:07;98700.19;;;17.34;36.35
38852;BME280;24605;50.092;9.182;2022-07-18T02:32:34;98701.84;;;17.35;36.74
38852;BME280;24605;50.092;9.182;2022-07-18T02:35:03;98694.47;;;17.31;36.28
38852;BME280;24605;50.092;9.182;2022-07-18T02:37:29;98685.44;;;17.25;36.76
38852;BME280;24605;50.092;9.182;2022-07-18T02:39:56;98686.22;;;17.19;37.22
38852;BME280;24605;50.092;9.182;2022-07-18T02:42:25;98680.88;;;17.12;37.00
38852;BME280;24605;50.092;9.182;2022-07-18T02:44:52;98662.34;;;16.90;37.02
38852;BME280;24605;50.092;9.182;2022-07-18T02:47:20;98678.38;;;17.04;37.08
38852;BME280;24605;50.092;9.182;2022-07-18T02:49:47;98675.91;;;17.02;36.97
38852;BME280;24605;50.092;9.182;2022-07-18T02:52:13;98682.75;;;17.18;36.86
38852;BME280;24605;50.092;9.182;2022-07-18T02:54:40;98683.31;;;17.14;36.81
38852;BME280;24605;50.092;9.182;2022-07-18T02:57:06;98679.72;;;17.21;36.62
38852;BME280;24605;50.092;9.182;2022-07-18T02:59:33;98690.97;;;17.30;36.49
38852;BME280;24605;50.092;9.182;2022-07-18T03:02:01;98631.16;;;17.14;35.44
38852;BME280;24605;50.092;9.182;2022-07-18T03:04:29;98646.66;;;17.17;35.80
38852;BME280;24605;50.092;9.182;2022-07-18T03:06:56;98678.88;;;17.49;35.52
38852;BME280;24605;50.092;9.182;2022-07-18T03:09:23;98655.72;;;17.30;35.88
38852;BME280;24605;50.092;9.182;2022-07-18T03:11:52;98652.44;;;17.28;35.22
38852;BME280;24605;50.092;9.182;2022-07-18T03:14:19;98651.22;;;17.30;35.56
38852;BME280;24605;50.092;9.182;2022-07-18T03:16:45;98675.84;;;17.59;35.07
38852;BME280;24605;50.092;9.182;2022-07-18T03:19:12;98674.00;;;17.53;34.95
38852;BME280;24605;50.092;9.182;2022-07-18T03:21:40;98654.59;;;17.52;34.74
38852;BME280;24605;50.092;9.182;2022-07-18T03:24:06;98672.81;;;17.62;34.49
38852;BME280;24605;50.092;9.182;2022-07-18T03:26:33;98657.66;;;17.49;34.76
38852;BME280;24605;50.092;9.182;2022-07-18T03:28:59;98697.53;;;17.69;37.66
38852;BME280;24605;50.092;9.182;2022-07-18T03:31:26;98692.91;;;17.85;37.85
38852;BME280;24605;50.092;9.182;2022-07-18T03:33:52;98695.09;;;17.75;36.38
38852;BME280;24605;50.092;9.182;2022-07-18T03:36:19;98695.34;;;17.86;37.67
38852;BME280;24605;50.092;9.182;2022-07-18T03:38:47;98692.69;;;17.86;37.02
38852;BME280;24605;50.092;9.182;2022-07-18T03:41:13;98697.19;;;17.86;35.81
38852;BME280;24605;50.092;9.182;2022-07-18T03:43:40;98702.72;;;17.91;36.25
38852;BME280;24605;50.092;9.182;2022-07-18T03:46:07;98688.16;;;17.74;35.79
38852;BME280;24605;50.092;9.182;2022-07-18T03:48:35;98689.88;;;17.88;36.21
38852;BME280;24605;50.092;9.182;2022-07-18T03:51:02;98691.59;;;18.03;35.55
38852;BME280;24605;50.092;9.182;2022-07-18T03:53:29;98685.78;;;17.92;35.34
38852;BME280;24605;50.092;9.182;2022-07-18T03:55:57;98691.22;;;18.19;35.50
38852;BME280;24605;50.092;9.182;2022-07-18T03:58:23;98683.25;;;18.19;34.34
38852;BME280;24605;50.092;9.182;2022-07-18T04:00:50;98694.94;;;18.31;34.40
38852;BME280;24605;50.092;9.182;2022-07-18T04:03:17;98683.88;;;18.21;34.65
38852;BME280;24605;50.092;9.182;2022-07-18T04:05:44;98704.13;;;18.29;34.72
38852;BME280;24605;50.092;9.182;2022-07-18T04:08:11;98697.16;;;18.21;34.51
38852;BME280;24605;50.092;9.182;2022-07-18T04:10:37;98690.38;;;18.12;35.01
38852;BME280;24605;50.092;9.182;2022-07-18T04:13:07;98692.84;;;18.07;34.24
38852;BME280;24605;50.092;9.182;2022-07-18T04:15:34;98703.09;;;18.30;35.44
38852;BME280;24605;50.092;9.182;2022-07-18T04:18:01;98698.84;;;18.42;35.16
38852;BME280;24605;50.092;9.182;2022-07-18T04:20:28;98693.69;;;18.27;35.08
38852;BME280;24605;50.092;9.182;2022-07-18T04:22:56;98680.59;;;18.19;35.21
38852;BME280;24605;50.092;9.182;2022-07-18T04:25:24;98685.91;;;18.19;35.02
38852;BME280;24605;50.092;9.182;2022-07-18T04:27:52;98691.03;;;18.27;35.21
38852;BME280;24605;50.092;9.182;2022-07-18T04:30:22;98686.34;;;18.29;35.55
38852;BME280;24605;50.092;9.182;2022-07-18T04:32:49;98687.63;;;18.47;34.53
38852;BME280;24605;50.092;9.182;2022-07-18T04:35:16;98683.16;;;18.68;35.02
38852;BME280;24605;50.092;9.182;2022-07-18T04:37:42;98693.38;;;18.77;33.83
38852;BME280;24605;50.092;9.182;2022-07-18T04:40:10;98685.59;;;18.83;34.24
38852;BME280;24605;50.092;9.182;2022-07-18T04:42:37;98684.16;;;18.80;34.00
38852;BME280;24605;50.092;9.182;2022-07-18T04:45:05;98682.13;;;18.82;33.94
38852;BME280;24605;50.092;9.182;2022-07-18T04:47:34;98684.81;;;18.95;33.72
38852;BME280;24605;50.092;9.182;2022-07-18T04:50:01;98688.50;;;18.94;34.19
38852;BME280;24605;50.092;9.182;2022-07-18T04:52:35;98685.44;;;19.04;34.19
38852;BME280;24605;50.092;9.182;2022-07-18T04:55:02;98682.97;;;19.09;33.32
38852;BME280;24605;50.092;9.182;2022-07-18T04:57:28;98687.06;;;19.05;33.34
38852;BME280;24605;50.092;9.182;2022-07-18T04:59:55;98687.47;;;19.02;33.58
38852;BME280;24605;50.092;9.182;2022-07-18T05:02:21;98674.41;;;19.07;33.66
38852;BME280;24605;50.092;9.182;2022-07-18T05:04:49;98689.09;;;19.10;34.44
38852;BME280;24605;50.092;9.182;2022-07-18T05:07:16;98679.69;;;19.14;34.31
38852;BME280;24605;50.092;9.182;2022-07-18T05:09:42;98683.56;;;19.18;34.43
38852;BME280;24605;50.092;9.182;2022-07-18T05:12:09;98685.63;;;19.30;34.08
38852;BME280;24605;50.092;9.182;2022-07-18T05:14:35;98684.97;;;19.41;34.73
38852;BME280;24605;50.092;9.182;2022-07-18T05:17:02;98682.28;;;19.48;34.83
38852;BME280;24605;50.092;9.182;2022-07-18T05:19:28;98685.13;;;19.53;34.52
38852;BME280;24605;50.092;9.182;2022-07-18T05:21:56;98689.63;;;19.59;34.35
38852;BME280;24605;50.092;9.182;2022-07-18T05:24:23;98681.88;;;19.51;36.39
38852;BME280;24605;50.092;9.182;2022-07-18T05:26:49;98694.34;;;19.50;38.00
38852;BME280;24605;50.092;9.182;2022-07-18T05:29:16;98694.06;;;19.79;36.79
38852;BME280;24605;50.092;9.182;2022-07-18T05:31:43;98689.34;;;19.94;35.66
38852;BME280;24605;50.092;9.182;2022-07-18T05:34:09;98691.38;;;19.92;35.60
38852;BME280;24605;50.092;9.182;2022-07-18T05:36:36;98681.16;;;19.89;35.10
38852;BME280;24605;50.092;9.182;2022-07-18T05:39:04;98694.47;;;19.89;34.86
38852;BME280;24605;50.092;9.182;2022-07-18T05:41:30;98688.06;;;20.03;35.26
38852;BME280;24605;50.092;9.182;2022-07-18T05:43:57;98700.06;;;20.19;35.21
38852;BME280;24605;50.092;9.182;2022-07-18T05:46:23;98697.97;;;20.28;34.41
38852;BME280;24605;50.092;9.182;2022-07-18T05:48:50;98691.66;;;20.23;34.40
38852;BME280;24605;50.092;9.182;2022-07-18T05:51:17;98688.13;;;20.29;34.61
38852;BME280;24605;50.092;9.182;2022-07-18T05:53:44;98678.38;;;20.16;33.36
38852;BME280;24605;50.092;9.182;2022-07-18T05:56:12;98689.38;;;20.26;34.03
38852;BME280;24605;50.092;9.182;2022-07-18T05:58:39;98692.72;;;20.54;35.09
38852;BME280;24605;50.092;9.182;2022-07-18T06:01:06;98683.97;;;20.72;34.32
38852;BME280;24605;50.092;9.182;2022-07-18T06:03:32;98687.16;;;20.87;34.39
38852;BME280;24605;50.092;9.182;2022-07-18T06:05:59;98687.25;;;20.99;34.53
38852;BME280;24605;50.092;9.182;2022-07-18T06:08:25;98650.56;;;20.69;33.65
38852;BME280;24605;50.092;9.182;2022-07-18T06:10:52;98697.72;;;21.01;33.38
38852;BME280;24605;50.092;9.182;2022-07-18T06:13:20;98683.22;;;20.90;33.22
38852;BME280;24605;50.092;9.182;2022-07-18T06:15:46;98699.44;;;21.13;33.52
38852;BME280;24605;50.092;9.182;2022-07-18T06:18:13;98704.50;;;21.22;32.56
38852;BME280;24605;50.092;9.182;2022-07-18T06:20:40;98709.53;;;21.30;32.72
38852;BME280;24605;50.092;9.182;2022-07-18T06:23:06;98700.56;;;21.24;32.95
38852;BME280;24605;50.092;9.182;2022-07-18T06:25:33;98689.09;;;21.42;32.21
38852;BME280;24605;50.092;9.182;2022-07-18T06:27:59;98710.53;;;21.54;31.07
38852;BME280;24605;50.092;9.182;2022-07-18T06:30:27;98707.50;;;21.69;31.29
38852;BME280;24605;50.092;9.182;2022-07-18T06:32:54;98704.94;;;21.81;31.54
38852;BME280;24605;50.092;9.182;2022-07-18T06:35:20;98701.06;;;21.96;32.03
38852;BME280;24605;50.092;9.182;2022-07-18T06:37:47;98694.50;;;22.10;31.38
38852;BME280;24605;50.092;9.182;2022-07-18T06:40:13;98686.53;;;22.22;30.71
38852;BME280;24605;50.092;9.182;2022-07-18T06:42:42;98702.50;;;22.10;31.28
38852;BME280;24605;50.092;9.182;2022-07-18T06:45:09;98620.41;;;22.05;30.28
38852;BME280;24605;50.092;9.182;2022-07-18T06:47:37;98701.72;;;22.71;29.78
38852;BME280;24605;50.092;9.182;2022-07-18T06:50:04;98708.94;;;22.82;29.18
38852;BME280;24605;50.092;9.182;2022-07-18T06:52:31;98703.03;;;22.92;29.16
38852;BME280;24605;50.092;9.182;2022-07-18T06:54:57;98706.38;;;22.99;29.42
38852;BME280;24605;50.092;9.182;2022-07-18T06:57:25;98709.19;;;23.04;29.14
38852;BME280;24605;50.092;9.182;2022-07-18T06:59:52;98704.91;;;23.03;31.58
38852;BME280;24605;50.092;9.182;2022-07-18T07:02:19;98702.06;;;22.74;32.11
38852;BME280;24605;50.092;9.182;2022-07-18T07:04:47;98701.91;;;22.57;32.37
38852;BME280;24605;50.092;9.182;2022-07-18T07:07:14;98699.38;;;22.62;32.54
38852;BME280;24605;50.092;9.182;2022-07-18T07:09:40;98708.22;;;22.75;33.46
38852;BME280;24605;50.092;9.182;2022-07-18T07:12:07;98702.75;;;22.69;33.99
38852;BME280;24605;50.092;9.182;2022-07-18T07:14:35;98702.06;;;22.74;33.28
38852;BME280;24605;50.092;9.182;2022-07-18T07:17:02;98708.94;;;22.82;33.24
38852;BME280;24605;50.092;9.182;2022-07-18T07:19:28;98702.75;;;22.69;32.87
38852;BME280;24605;50.092;9.182;2022-07-18T07:21:56;98707.16;;;22.76;33.54
38852;BME280;24605;50.092;9.182;2022-07-18T07:24:23;98709.03;;;22.75;33.59
38852;BME280;24605;50.092;9.182;2022-07-18T07:26:49;98703.13;;;22.85;32.90
38852;BME280;24605;50.092;9.182;2022-07-18T07:29:16;98699.88;;;22.83;33.10
38852;BME280;24605;50.092;9.182;2022-07-18T07:31:42;98706.28;;;22.94;33.38
38852;BME280;24605;50.092;9.182;2022-07-18T07:34:09;98702.44;;;23.01;33.22
38852;BME280;24605;50.092;9.182;2022-07-18T07:36:35;98700.34;;;23.15;33.50
38852;BME280;24605;50.092;9.182;2022-07-18T07:39:03;98697.47;;;23.17;32.96
38852;BME280;24605;50.092;9.182;2022-07-18T07:41:30;98703.53;;;23.24;33.45
38852;BME280;24605;50.092;9.182;2022-07-18T07:43:56;98698.06;;;23.43;32.84
38852;BME280;24605;50.092;9.182;2022-07-18T07:46:23;98708.03;;;23.59;32.78
38852;BME280;24605;50.092;9.182;2022-07-18T07:48:49;98707.94;;;23.66;31.99
38852;BME280;24605;50.092;9.182;2022-07-18T07:51:16;98704.06;;;23.62;31.77
38852;BME280;24605;50.092;9.182;2022-07-18T07:53:42;98708.09;;;23.76;31.03
38852;BME280;24605;50.092;9.182;2022-07-18T07:56:10;98705.72;;;24.16;31.12
38852;BME280;24605;50.092;9.182;2022-07-18T07:58:37;98702.19;;;24.44;31.16
38852;BME280;24605;50.092;9.182;2022-07-18T08:01:04;98698.47;;;24.45;30.49
38852;BME280;24605;50.092;9.182;2022-07-18T08:03:30;98699.44;;;24.39;30.66
38852;BME280;24605;50.092;9.182;2022-07-18T08:05:57;98692.31;;;24.45;30.55
38852;BME280;24605;50.092;9.182;2022-07-18T08:08:23;98690.84;;;24.54;29.82
38852;BME280;24605;50.092;9.182;2022-07-18T08:10:50;98688.41;;;24.52;29.99
38852;BME280;24605;50.092;9.182;2022-07-18T08:13:19;98687.28;;;24.65;29.64
38852;BME280;24605;50.092;9.182;2022-07-18T08:15:46;98679.03;;;24.84;29.09
38852;BME280;24605;50.092;9.182;2022-07-18T08:18:13;98688.34;;;25.15;28.54
38852;BME280;24605;50.092;9.182;2022-07-18T08:20:39;98685.91;;;25.14;27.36
38852;BME280;24605;50.092;9.182;2022-07-18T08:23:07;98679.31;;;25.22;27.70
38852;BME280;24605;50.092;9.182;2022-07-18T08:25:38;98683.94;;;25.26;28.15
38852;BME280;24605;50.092;9.182;2022-07-18T08:28:05;98679.63;;;25.42;27.02
38852;BME280;24605;50.092;9.182;2022-07-18T08:30:33;98682.75;;;25.56;27.14
38852;BME280;24605;50.092;9.182;2022-07-18T08:33:00;98682.44;;;25.53;26.37
38852;BME280;24605;50.092;9.182;2022-07-18T08:35:27;98676.78;;;25.71;27.28
38852;BME280;24605;50.092;9.182;2022-07-18T08:37:53;98674.09;;;25.71;27.41
38852;BME280;24605;50.092;9.182;2022-07-18T08:40:20;98668.53;;;25.56;25.44
38852;BME280;24605;50.092;9.182;2022-07-18T08:42:50;98672.59;;;25.58;25.96
38852;BME280;24605;50.092;9.182;2022-07-18T08:45:19;98666.97;;;25.60;26.31
38852;BME280;24605;50.092;9.182;2022-07-18T08:47:47;98671.41;;;25.71;25.88
38852;BME280;24605;50.092;9.182;2022-07-18T08:50:14;98674.13;;;25.76;24.15
38852;BME280;24605;50.092;9.182;2022-07-18T08:52:41;98672.59;;;25.80;24.23
38852;BME280;24605;50.092;9.182;2022-07-18T08:55:09;98666.03;;;25.71;25.17
38852;BME280;24605;50.092;9.182;2022-07-18T08:57:35;98652.94;;;25.80;25.51
38852;BME280;24605;50.092;9.182;2022-07-18T09:00:03;98665.88;;;26.05;25.95
38852;BME280;24605;50.092;9.182;2022-07-18T09:02:30;98665.75;;;25.95;24.11
38852;BME280;24605;50.092;9.182;2022-07-18T09:05:00;98658.56;;;26.01;24.92
38852;BME280;24605;50.092;9.182;2022-07-18T09:07:28;98662.84;;;26.24;25.21
38852;BME280;24605;50.092;9.182;2022-07-18T09:09:57;98654.78;;;26.24;24.03
38852;BME280;24605;50.092;9.182;2022-07-18T09:12:24;98667.56;;;26.39;24.48
38852;BME280;24605;50.092;9.182;2022-07-18T09:14:52;98662.03;;;26.51;24.57
38852;BME280;24605;50.092;9.182;2022-07-18T09:17:20;98665.19;;;26.75;23.90
38852;BME280;24605;50.092;9.182;2022-07-18T09:20:02;98672.16;;;26.76;23.86
38852;BME280;24605;50.092;9.182;2022-07-18T09:22:31;98669.88;;;26.57;23.53
38852;BME280;24605;50.092;9.182;2022-07-18T09:25:03;98665.59;;;26.62;23.92
38852;BME280;24605;50.092;9.182;2022-07-18T09:27:33;98665.19;;;26.42;24.99
38852;BME280;24605;50.092;9.182;2022-07-18T09:30:21;98672.59;;;26.57;24.59
38852;BME280;24605;50.092;9.182;2022-07-18T09:32:50;98673.66;;;26.56;24.18
38852;BME280;24605;50.092;9.182;2022-07-18T09:35:22;98669.88;;;26.57;23.34
38852;BME280;24605;50.092;9.182;2022-07-18T09:37:53;98680.38;;;26.59;23.27
38852;BME280;24605;50.092;9.182;2022-07-18T09:40:22;98669.47;;;26.76;23.70
38852;BME280;24605;50.092;9.182;2022-07-18T09:42:50;98659.56;;;26.77;23.38
38852;BME280;24605;50.092;9.182;2022-07-18T09:45:22;98662.44;;;26.70;23.60
38852;BME280;24605;50.092;9.182;2022-07-18T09:47:51;98656.56;;;27.11;23.84
38852;BME280;24605;50.092;9.182;2022-07-18T09:50:28;98665.25;;;27.23;23.23
38852;BME280;24605;50.092;9.182;2022-07-18T09:53:07;98653.38;;;27.19;23.46
38852;BME280;24605;50.092;9.182;2022-07-18T09:55:34;98654.66;;;27.49;23.53
38852;BME280;24605;50.092;9.182;2022-07-18T09:58:04;98657.06;;;27.56;22.63
38852;BME280;24605;50.092;9.182;2022-07-18T10:00:33;98668.97;;;27.60;22.68
38852;BME280;24605;50.092;9.182;2022-07-18T10:03:02;98650.94;;;27.71;22.30
38852;BME280;24605;50.092;9.182;2022-07-18T10:05:32;98654.66;;;27.59;22.76
38852;BME280;24605;50.092;9.182;2022-07-18T10:08:00;98649.34;;;27.75;22.64
38852;BME280;24605;50.092;9.182;2022-07-18T10:10:27;98653.69;;;27.76;21.95
38852;BME280;24605;50.092;9.182;2022-07-18T10:12:55;98657.13;;;27.61;22.37
38852;BME280;24605;50.092;9.182;2022-07-18T10:15:24;98649.41;;;27.95;22.40
38852;BME280;24605;50.092;9.182;2022-07-18T10:17:51;98651.66;;;28.24;22.06
38852;BME280;24605;50.092;9.182;2022-07-18T10:20:24;98655.59;;;28.01;22.35
38852;BME280;24605;50.092;9.182;2022-07-18T10:22:53;98658.28;;;27.86;21.78
38852;BME280;24605;50.092;9.182;2022-07-18T10:25:22;98636.63;;;27.60;22.26
38852;BME280;24605;50.092;9.182;2022-07-18T10:27:50;98638.09;;;27.93;22.43
38852;BME280;24605;50.092;9.182;2022-07-18T10:30:18;98616.25;;;27.95;22.72
38852;BME280;24605;50.092;9.182;2022-07-18T10:32:55;98648.28;;;27.86;22.71
38852;BME280;24605;50.092;9.182;2022-07-18T10:36:02;98654.88;;;28.21;22.51
38852;BME280;24605;50.092;9.182;2022-07-18T10:38:29;98651.13;;;28.53;22.05
38852;BME280;24605;50.092;9.182;2022-07-18T10:41:04;98646.78;;;28.26;22.04
38852;BME280;24605;50.092;9.182;2022-07-18T10:43:32;98646.19;;;28.04;22.51
38852;BME280;24605;50.092;9.182;2022-07-18T10:45:59;98649.19;;;28.12;22.45
38852;BME280;24605;50.092;9.182;2022-07-18T10:48:47;98647.63;;;28.32;22.51
38852;BME280;24605;50.092;9.182;2022-07-18T10:51:16;98646.53;;;28.80;23.12
38852;BME280;24605;50.092;9.182;2022-07-18T10:53:56;98647.06;;;29.02;22.00
38852;BME280;24605;50.092;9.182;2022-07-18T10:59:28;98640.25;;;29.26;22.13
38852;BME280;24605;50.092;9.182;2022-07-18T11:01:55;98646.16;;;29.28;21.21
38852;BME280;24605;50.092;9.182;2022-07-18T11:04:24;98648.63;;;29.24;21.09
38852;BME280;24605;50.092;9.182;2022-07-18T11:07:02;98639.19;;;29.32;21.34
38852;BME280;24605;50.092;9.182;2022-07-18T11:09:31;98640.53;;;29.19;20.62
38852;BME280;24605;50.092;9.182;2022-07-18T11:12:18;98648.44;;;28.89;21.48
38852;BME280;24605;50.092;9.182;2022-07-18T11:15:04;98649.75;;;28.97;21.86
38852;BME280;24605;50.092;9.182;2022-07-18T11:17:55;98643.53;;;29.07;21.62
38852;BME280;24605;50.092;9.182;2022-07-18T11:20:26;98642.97;;;29.20;21.21
38852;BME280;24605;50.092;9.182;2022-07-18T11:22:55;98616.19;;;29.34;20.69
38852;BME280;24605;50.092;9.182;2022-07-18T11:25:24;98624.94;;;29.71;20.86
38852;BME280;24605;50.092;9.182;2022-07-18T11:27:52;98627.19;;;29.59;20.96
38852;BME280;24605;50.092;9.182;2022-07-18T11:30:20;98622.88;;;29.58;20.19
38852;BME280;24605;50.092;9.182;2022-07-18T11:32:47;98618.09;;;29.34;20.78
38852;BME280;24605;50.092;9.182;2022-07-18T11:35:14;98609.72;;;29.30;21.69
38852;BME280;24605;50.092;9.182;2022-07-18T11:37:46;98612.72;;;29.84;21.73
38852;BME280;24605;50.092;9.182;2022-07-18T11:40:15;98612.47;;;30.25;21.14
38852;BME280;24605;50.092;9.182;2022-07-18T11:42:41;98613.50;;;29.95;20.73
38852;BME280;24605;50.092;9.182;2022-07-18T11:45:10;98613.88;;;30.17;20.03
38852;BME280;24605;50.092;9.182;2022-07-18T11:47:38;98612.06;;;30.08;20.78
38852;BME280;24605;50.092;9.182;2022-07-18T11:50:06;98599.16;;;29.89;20.96
38852;BME280;24605;50.092;9.182;2022-07-18T11:52:33;98603.03;;;30.23;20.43
38852;BME280;24605;50.092;9.182;2022-07-18T11:55:00;98607.91;;;30.55;20.21
38852;BME280;24605;50.092;9.182;2022-07-18T11:57:32;98604.78;;;30.38;20.58
38852;BME280;24605;50.092;9.182;2022-07-18T11:59:59;98604.78;;;30.72;20.03
38852;BME280;24605;50.092;9.182;2022-07-18T12:03:05;98606.06;;;31.04;19.90
38852;BME280;24605;50.092;9.182;2022-07-18T12:05:32;98608.66;;;30.90;19.59
38852;BME280;24605;50.092;9.182;2022-07-18T12:07:59;98592.50;;;30.51;19.98
38852;BME280;24605;50.092;9.182;2022-07-18T12:10:26;98596.09;;;30.06;20.33
38852;BME280;24605;50.092;9.182;2022-07-18T12:12:54;98587.97;;;30.06;21.18
38852;BME280;24605;50.092;9.182;2022-07-18T12:15:21;98587.75;;;30.37;19.79
38852;BME280;24605;50.092;9.182;2022-07-18T12:17:48;98584.50;;;30.40;20.09
38852;BME280;24605;50.092;9.182;2022-07-18T12:20:17;98586.84;;;30.47;20.51
38852;BME280;24605;50.092;9.182;2022-07-18T12:23:04;98586.25;;;30.55;20.15
38852;BME280;24605;50.092;9.182;2022-07-18T12:25:39;98582.41;;;30.91;20.13
38852;BME280;24605;50.092;9.182;2022-07-18T12:28:14;98573.19;;;30.92;20.23
38852;BME280;24605;50.092;9.182;2022-07-18T12:30:41;98573.75;;;30.89;20.53
38852;BME280;24605;50.092;9.182;2022-07-18T12:33:08;98573.97;;;30.92;20.32
38852;BME280;24605;50.092;9.182;2022-07-18T12:35:36;98565.09;;;30.87;19.99
38852;BME280;24605;50.092;9.182;2022-07-18T12:38:04;98563.94;;;30.39;20.02
38852;BME280;24605;50.092;9.182;2022-07-18T12:40:42;98575.88;;;30.68;20.04
38852;BME280;24605;50.092;9.182;2022-07-18T12:43:11;98566.81;;;30.48;20.74
38852;BME280;24605;50.092;9.182;2022-07-18T12:45:40;98561.47;;;30.72;20.02
38852;BME280;24605;50.092;9.182;2022-07-18T12:48:09;98561.47;;;30.97;19.98
38852;BME280;24605;50.092;9.182;2022-07-18T12:50:36;98559.22;;;30.50;20.36
38852;BME280;24605;50.092;9.182;2022-07-18T12:53:03;98505.44;;;30.14;20.24
38852;BME280;24605;50.092;9.182;2022-07-18T12:55:30;98547.47;;;30.65;20.15
38852;BME280;24605;50.092;9.182;2022-07-18T12:57:57;98552.03;;;30.94;20.31
38852;BME280;24605;50.092;9.182;2022-07-18T13:00:23;98548.53;;;31.18;19.87
38852;BME280;24605;50.092;9.182;2022-07-18T13:02:51;98555.28;;;31.39;19.39
38852;BME280;24605;50.092;9.182;2022-07-18T13:05:21;98549.69;;;31.12;20.21
38852;BME280;24605;50.092;9.182;2022-07-18T13:07:47;98541.19;;;31.18;19.91